createdAt,value
2022-08-09T00:01:54.893Z,2.50
2022-08-09T00:05:03.349Z,2.70
2022-08-09T00:08:32.626Z,2.65
2022-08-09T00:12:04.010Z,2.65
2022-08-09T00:15:06.332Z,2.53
2022-08-09T00:18:12.546Z,2.40
2022-08-09T00:21:17.838Z,2.47
2022-08-09T00:24:20.862Z,2.80
2022-08-09T00:27:23.875Z,2.85
2022-08-09T00:30:31.048Z,2.50
2022-08-09T00:33:50.326Z,2.70
2022-08-09T00:36:54.403Z,2.50
2022-08-09T00:40:13.019Z,2.30
2022-08-09T00:44:12.957Z,2.60
2022-08-09T00:46:55.639Z,2.35
2022-08-09T00:50:02.533Z,2.97
2022-08-09T00:53:10.601Z,2.50
2022-08-09T00:56:15.203Z,2.50
2022-08-09T00:59:31.662Z,2.45
2022-08-09T01:02:47.688Z,2.70
2022-08-09T01:06:03.935Z,2.60
2022-08-09T01:09:36.642Z,2.63
2022-08-09T01:12:44.024Z,2.67
2022-08-09T01:15:52.657Z,2.70
2022-08-09T01:19:01.962Z,2.88
2022-08-09T01:22:28.495Z,2.67
2022-08-09T01:25:53.707Z,2.50
2022-08-09T01:29:00.438Z,2.53
2022-08-09T01:32:29.525Z,2.35
2022-08-09T01:35:38.327Z,2.40
2022-08-09T01:38:46.653Z,2.53
2022-08-09T01:41:53.437Z,2.60
2022-08-09T01:45:01.701Z,2.20
2022-08-09T01:48:06.323Z,2.50
2022-08-09T01:51:11.415Z,2.35
2022-08-09T01:54:32.630Z,2.50
2022-08-09T01:57:40.075Z,2.42
2022-08-09T02:00:50.700Z,2.50
2022-08-09T02:03:56.526Z,2.95
2022-08-09T02:07:18.300Z,2.40
2022-08-09T02:10:36.723Z,2.70
2022-08-09T02:13:41.840Z,2.63
2022-08-09T02:17:00.043Z,3.00
2022-08-09T02:20:15.928Z,2.63
2022-08-09T02:23:40.128Z,2.90
2022-08-09T02:26:47.342Z,2.47
2022-08-09T02:29:54.136Z,2.70
2022-08-09T02:33:02.068Z,2.63
2022-08-09T02:36:10.501Z,2.90
2022-08-09T02:39:33.801Z,2.95
2022-08-09T02:42:46.439Z,2.80
2022-08-09T02:45:55.396Z,2.35
2022-08-09T02:49:04.258Z,2.90
2022-08-09T02:52:10.447Z,2.50
2022-08-09T02:55:15.896Z,3.00
2022-08-09T02:58:35.611Z,2.88
2022-08-09T03:01:42.767Z,3.53
2022-08-09T03:05:05.730Z,2.55
2022-08-09T03:08:11.785Z,2.90
2022-08-09T03:12:04.667Z,3.05
2022-08-09T03:14:41.403Z,3.10
2022-08-09T03:17:46.178Z,2.80
2022-08-09T03:21:04.449Z,2.85
2022-08-09T03:24:10.067Z,2.60
2022-08-09T03:27:17.043Z,2.70
2022-08-09T03:30:29.645Z,3.10
2022-08-09T03:33:53.359Z,2.65
2022-08-09T03:37:10.777Z,2.80
2022-08-09T03:40:24.642Z,2.83
2022-08-09T03:43:31.643Z,2.80
2022-08-09T03:46:35.481Z,2.90
2022-08-09T03:49:42.080Z,2.80
2022-08-09T03:53:04.507Z,2.97
2022-08-09T03:56:09.651Z,2.70
2022-08-09T03:59:20.790Z,3.20
2022-08-09T04:02:30.173Z,2.63
2022-08-09T04:05:33.875Z,2.50
2022-08-09T04:08:46.693Z,3.15
2022-08-09T04:12:29.986Z,2.78
2022-08-09T04:16:17.124Z,2.90
2022-08-09T04:18:57.847Z,3.17
2022-08-09T04:22:01.363Z,3.00
2022-08-09T04:25:07.162Z,2.85
2022-08-09T04:28:12.384Z,2.70
2022-08-09T04:31:15.551Z,2.88
2022-08-09T04:34:31.614Z,3.00
2022-08-09T04:37:45.770Z,2.80
2022-08-09T04:40:56.474Z,2.70
2022-08-09T04:44:06.915Z,3.10
2022-08-09T04:47:12.770Z,2.80
2022-08-09T04:50:19.781Z,2.90
2022-08-09T04:53:27.654Z,3.03
2022-08-09T04:56:35.815Z,3.03
2022-08-09T04:59:39.473Z,3.00
2022-08-09T05:02:44.286Z,2.72
2022-08-09T05:06:07.104Z,2.92
2022-08-09T05:09:10.764Z,2.85
2022-08-09T05:12:16.877Z,2.80
2022-08-09T05:15:24.561Z,2.67
2022-08-09T05:18:57.604Z,2.92
2022-08-09T05:22:02.576Z,2.67
2022-08-09T05:25:06.890Z,2.92
2022-08-09T05:28:13.483Z,2.92
2022-08-09T05:31:16.546Z,2.80
2022-08-09T05:34:45.662Z,3.15
2022-08-09T05:37:50.273Z,2.53
2022-08-09T05:40:53.490Z,2.95
2022-08-09T05:43:57.866Z,2.88
2022-08-09T05:47:01.256Z,2.83
2022-08-09T05:50:32.270Z,2.78
2022-08-09T05:53:33.387Z,2.88
2022-08-09T05:56:37.642Z,3.00
2022-08-09T05:59:59.255Z,2.70
2022-08-09T06:03:04.419Z,2.70
2022-08-09T06:06:14.013Z,3.38
2022-08-09T06:09:53.825Z,2.90
2022-08-09T06:12:40.739Z,2.70
2022-08-09T06:15:47.236Z,2.80
2022-08-09T06:18:54.991Z,2.50
2022-08-09T06:21:58.887Z,2.50
2022-08-09T06:25:02.265Z,3.00
2022-08-09T06:28:07.704Z,2.70
2022-08-09T06:31:12.923Z,2.60
2022-08-09T06:34:16.002Z,2.72
2022-08-09T06:37:20.030Z,3.00
2022-08-09T06:40:24.427Z,3.22
2022-08-09T06:43:34.083Z,2.88
2022-08-09T06:46:41.027Z,3.00
2022-08-09T06:50:14.643Z,3.38
2022-08-09T06:53:07.690Z,3.15
2022-08-09T06:56:14.473Z,3.20
2022-08-09T07:00:54.739Z,3.10
2022-08-09T07:02:42.510Z,2.53
2022-08-09T07:05:58.523Z,2.67
2022-08-09T07:09:07.999Z,3.60
2022-08-09T07:12:38.616Z,3.08
2022-08-09T07:16:38.865Z,3.38
2022-08-09T07:19:10.825Z,2.50
2022-08-09T07:22:34.397Z,2.67
2022-08-09T07:25:42.682Z,2.60
2022-08-09T07:29:08.121Z,2.72
2022-08-09T07:32:09.715Z,2.80
2022-08-09T07:35:15.055Z,2.90
2022-08-09T07:38:18.192Z,2.67
2022-08-09T07:41:22.518Z,2.53
2022-08-09T07:44:52.540Z,2.50
2022-08-09T07:48:00.717Z,2.88
2022-08-09T07:52:03.696Z,3.00
2022-08-09T07:54:32.108Z,2.65
2022-08-09T07:57:36.226Z,2.60
2022-08-09T08:00:58.690Z,2.10
2022-08-09T08:04:03.582Z,2.40
2022-08-09T08:07:15.371Z,2.58
2022-08-09T08:10:34.298Z,2.13
2022-08-09T08:13:44.917Z,2.35
2022-08-09T08:17:07.436Z,2.15
2022-08-09T08:20:13.725Z,2.30
2022-08-09T08:23:18.698Z,2.00
2022-08-09T08:26:26.540Z,2.47
2022-08-09T08:29:45.311Z,2.05
2022-08-09T08:32:53.973Z,2.10
2022-08-09T08:35:59.663Z,2.47
2022-08-09T08:39:05.788Z,2.22
2022-08-09T08:42:09.434Z,2.17
2022-08-09T08:45:14.224Z,2.33
2022-08-09T08:48:19.587Z,2.47
2022-08-09T08:51:23.847Z,2.10
2022-08-09T08:54:30.320Z,2.20
2022-08-09T08:57:34.965Z,2.10
2022-08-09T09:00:39.030Z,2.55
2022-08-09T09:03:43.746Z,2.15
2022-08-09T09:06:52.595Z,1.92
2022-08-09T09:10:04.541Z,2.33
2022-08-09T09:13:09.745Z,2.20
2022-08-09T09:16:18.591Z,1.90
2022-08-09T09:19:42.073Z,2.05
2022-08-09T09:22:56.374Z,2.17
2022-08-09T09:26:11.853Z,2.20
2022-08-09T09:29:17.173Z,2.10
2022-08-09T09:32:35.055Z,3.00
2022-08-09T09:36:02.884Z,2.22
2022-08-09T09:39:10.792Z,2.08
2022-08-09T09:42:25.940Z,2.58
2022-08-09T09:45:29.543Z,2.80
2022-08-09T09:48:34.850Z,2.80
2022-08-09T09:51:40.396Z,3.13
2022-08-09T09:54:48.691Z,3.72
2022-08-09T09:58:16.371Z,3.65
2022-08-09T10:01:30.302Z,4.25
2022-08-09T10:04:42.111Z,3.97
2022-08-09T10:08:01.184Z,3.47
2022-08-09T10:12:01.446Z,3.22
2022-08-09T10:14:43.952Z,2.88
2022-08-09T10:17:56.461Z,2.70
2022-08-09T10:21:08.017Z,2.85
2022-08-09T10:24:16.102Z,3.30
2022-08-09T10:27:34.755Z,2.40
2022-08-09T10:34:10.761Z,2.58
2022-08-09T10:37:30.667Z,2.80
2022-08-09T10:40:44.758Z,2.65
2022-08-09T10:43:59.803Z,2.90
2022-08-09T10:48:26.132Z,2.28
2022-08-09T10:51:41.292Z,2.40
2022-08-09T10:54:45.260Z,2.00
2022-08-09T10:57:51.669Z,2.20
2022-08-09T11:03:01.902Z,1.95
2022-08-09T11:04:30.296Z,2.35
2022-08-09T11:07:55.017Z,2.35
2022-08-09T11:11:00.685Z,1.90
2022-08-09T11:14:41.850Z,1.95
2022-08-09T11:17:53.309Z,2.08
2022-08-09T11:20:58.339Z,2.10
2022-08-09T11:24:01.667Z,2.45
2022-08-09T11:28:03.221Z,2.10
2022-08-09T11:30:54.615Z,1.90
2022-08-09T11:33:59.329Z,2.10
2022-08-09T11:37:07.129Z,1.88
2022-08-09T11:40:13.312Z,1.95
2022-08-09T11:43:39.662Z,1.90
2022-08-09T11:46:53.226Z,2.00
2022-08-09T11:50:55.503Z,1.88
2022-08-09T11:53:58.899Z,2.00
2022-08-09T11:56:53.063Z,1.83
2022-08-09T11:59:56.780Z,2.03
2022-08-09T12:03:31.867Z,2.05
2022-08-09T12:06:32.073Z,2.03
2022-08-09T12:09:37.918Z,2.50
2022-08-09T12:12:49.250Z,2.35
2022-08-09T12:16:01.583Z,2.00
2022-08-09T12:19:09.600Z,2.35
2022-08-09T12:22:14.682Z,2.55
2022-08-09T12:25:36.307Z,3.20
2022-08-09T12:29:10.284Z,2.45
2022-08-09T12:32:11.606Z,2.30
2022-08-09T12:35:19.316Z,2.70
2022-08-09T12:38:38.238Z,2.30
2022-08-09T12:41:43.510Z,2.03
2022-08-09T12:44:52.311Z,2.10
2022-08-09T12:47:58.022Z,2.00
2022-08-09T12:51:04.442Z,1.90
2022-08-09T12:54:08.639Z,1.77
2022-08-09T12:57:13.279Z,2.03
2022-08-09T13:00:18.937Z,2.33
2022-08-09T13:03:52.683Z,1.88
2022-08-09T13:06:54.142Z,1.88
2022-08-09T13:10:03.415Z,2.10
2022-08-09T13:13:11.253Z,1.95
2022-08-09T13:16:17.506Z,2.05
2022-08-09T13:20:07.429Z,2.28
2022-08-09T13:23:01.919Z,2.33
2022-08-09T13:26:13.486Z,2.05
2022-08-09T13:29:20.636Z,2.15
2022-08-09T13:32:48.556Z,1.70
2022-08-09T13:36:24.080Z,2.03
2022-08-09T13:41:56.657Z,2.03
2022-08-09T13:42:39.061Z,2.08
2022-08-09T13:46:42.532Z,1.65
2022-08-09T13:49:07.973Z,1.85
2022-08-09T13:52:21.703Z,1.88
2022-08-09T13:55:24.850Z,2.13
2022-08-09T13:58:32.196Z,1.70
2022-08-09T14:01:56.041Z,1.90
2022-08-09T14:05:00.600Z,1.70
2022-08-09T14:08:05.583Z,1.65
2022-08-09T14:11:09.857Z,1.58
2022-08-09T14:14:25.856Z,2.17
2022-08-09T14:18:01.657Z,2.47
2022-08-09T14:20:55.425Z,2.00
2022-08-09T14:24:01.106Z,2.17
2022-08-09T14:27:19.742Z,1.80
2022-08-09T14:30:36.802Z,2.20
2022-08-09T14:33:47.165Z,2.33
2022-08-09T14:36:57.601Z,2.13
2022-08-09T14:40:02.559Z,1.90
2022-08-09T14:43:06.926Z,2.13
2022-08-09T14:46:51.325Z,2.25
2022-08-09T14:49:40.086Z,3.00
2022-08-09T14:52:58.294Z,2.40
2022-08-09T14:56:01.455Z,2.30
2022-08-09T14:59:05.976Z,2.05
2022-08-09T15:02:17.603Z,2.22
2022-08-09T15:05:24.963Z,2.25
2022-08-09T15:08:42.170Z,2.45
2022-08-09T15:11:54.361Z,2.28
2022-08-09T15:14:57.660Z,2.17
2022-08-09T15:18:02.088Z,2.20
2022-08-09T15:21:55.327Z,2.33
2022-08-09T15:24:30.039Z,1.92
2022-08-09T15:27:47.624Z,2.40
2022-08-09T15:31:10.078Z,2.30
2022-08-09T15:34:33.930Z,2.80
2022-08-09T15:37:57.012Z,2.65
2022-08-09T15:41:09.589Z,2.30
2022-08-09T15:44:14.199Z,1.90
2022-08-09T15:47:31.802Z,2.22
2022-08-09T15:50:48.138Z,2.40
2022-08-09T15:54:05.417Z,2.42
2022-08-09T15:57:15.324Z,2.15
2022-08-09T16:00:26.092Z,2.30
2022-08-09T16:03:38.720Z,2.10
2022-08-09T16:06:50.505Z,1.88
2022-08-09T16:10:04.154Z,1.80
2022-08-09T16:13:21.057Z,2.20
2022-08-09T16:16:32.169Z,1.77
2022-08-09T16:19:36.715Z,1.80
2022-08-09T16:22:48.636Z,1.92
2022-08-09T16:25:53.410Z,1.90
2022-08-09T16:29:11.355Z,2.10
2022-08-09T16:32:33.396Z,1.80
2022-08-09T16:35:56.925Z,1.60
2022-08-09T16:39:02.992Z,1.40
2022-08-09T16:42:08.789Z,1.75
2022-08-09T16:45:19.896Z,1.65
2022-08-09T16:48:42.505Z,1.90
2022-08-09T16:51:55.280Z,2.17
2022-08-09T16:54:59.119Z,1.63
2022-08-09T16:58:08.505Z,1.85
2022-08-09T17:01:13.432Z,1.70
2022-08-09T17:04:25.681Z,2.00
2022-08-09T17:08:44.165Z,2.00
2022-08-09T17:10:52.751Z,1.88
2022-08-09T17:14:01.039Z,1.67
2022-08-09T17:17:23.734Z,1.70
2022-08-09T17:20:37.544Z,2.03
2022-08-09T17:24:27.204Z,1.67
2022-08-09T17:27:14.981Z,1.70
2022-08-09T17:30:20.530Z,1.70
2022-08-09T17:33:24.061Z,1.70
2022-08-09T17:36:27.121Z,2.00
2022-08-09T17:39:52.594Z,1.88
2022-08-09T17:42:55.725Z,1.60
2022-08-09T17:46:06.646Z,1.50
2022-08-09T17:49:10.434Z,1.40
2022-08-09T17:52:22.323Z,1.40
2022-08-09T17:55:47.080Z,1.83
2022-08-09T17:58:48.881Z,1.60
2022-08-09T18:02:06.198Z,1.50
2022-08-09T18:05:15.754Z,1.83
2022-08-09T18:08:18.914Z,1.73
2022-08-09T18:11:25.409Z,1.83
2022-08-09T18:14:30.047Z,1.60
2022-08-09T18:18:02.829Z,1.33
2022-08-09T18:21:12.288Z,1.63
2022-08-09T18:24:23.214Z,1.67
2022-08-09T18:28:02.205Z,1.50
2022-08-09T18:30:54.106Z,1.75
2022-08-09T18:33:58.512Z,1.65
2022-08-09T18:37:03.098Z,1.73
2022-08-09T18:40:08.204Z,1.83
2022-08-09T18:43:12.635Z,1.42
2022-08-09T18:46:46.279Z,1.30
2022-08-09T18:49:46.267Z,1.55
2022-08-09T18:52:50.965Z,1.52
2022-08-09T18:55:57.240Z,1.38
2022-08-09T18:59:08.481Z,1.60
2022-08-09T19:02:14.875Z,1.35
2022-08-09T19:05:58.655Z,1.70
2022-08-09T19:08:54.870Z,1.67
2022-08-09T19:12:07.619Z,1.90
2022-08-09T19:15:13.407Z,1.70
2022-08-09T19:18:34.914Z,1.77
2022-08-09T19:21:52.400Z,1.52
2022-08-09T19:25:11.816Z,1.60
2022-08-09T19:28:29.498Z,1.67
2022-08-09T19:31:45.273Z,1.65
2022-08-09T19:34:49.766Z,1.58
2022-08-09T19:37:58.546Z,1.75
2022-08-09T19:41:02.707Z,1.80
2022-08-09T19:44:06.005Z,2.08
2022-08-09T19:47:09.253Z,2.10
2022-08-09T19:50:50.749Z,1.95
2022-08-09T19:53:45.485Z,2.10
2022-08-09T19:56:51.314Z,2.30
2022-08-09T20:00:06.446Z,1.83
2022-08-09T20:04:17.443Z,2.13
2022-08-09T20:06:36.065Z,2.75
2022-08-09T20:09:44.416Z,2.80
2022-08-09T20:12:48.502Z,2.00
2022-08-09T20:16:34.844Z,2.00
2022-08-09T20:19:48.124Z,1.52
2022-08-09T20:22:44.619Z,1.90
2022-08-09T20:25:52.392Z,1.95
2022-08-09T20:28:56.289Z,1.65
2022-08-09T20:32:30.414Z,1.65
2022-08-09T20:35:25.063Z,1.80
2022-08-09T20:38:46.610Z,1.30
2022-08-09T20:41:52.634Z,1.67
2022-08-09T20:45:57.101Z,1.50
2022-08-09T20:48:24.255Z,1.33
2022-08-09T20:51:40.802Z,1.60
2022-08-09T20:54:52.648Z,1.48
2022-08-09T20:58:08.432Z,1.30
2022-08-09T21:01:35.377Z,2.17
2022-08-09T21:05:52.735Z,1.40
2022-08-09T21:08:06.975Z,1.40
2022-08-09T21:14:39.721Z,1.30
2022-08-09T21:18:21.118Z,1.15
2022-08-09T21:21:17.644Z,1.52
2022-08-09T21:24:28.978Z,1.27
2022-08-09T21:27:51.373Z,1.52
2022-08-09T21:30:57.566Z,1.02
2022-08-09T21:34:00.515Z,1.30
2022-08-09T21:37:18.487Z,1.27
2022-08-09T21:40:30.682Z,1.40
2022-08-09T21:43:56.648Z,1.10
2022-08-09T21:47:01.647Z,1.52
2022-08-09T21:50:07.467Z,1.30
2022-08-09T21:53:40.066Z,3.67
2022-08-09T21:56:54.106Z,1.80
2022-08-09T21:59:57.662Z,1.02
2022-08-09T22:03:05.865Z,1.33
2022-08-09T22:06:09.493Z,1.38
2022-08-09T22:09:14.099Z,1.20
2022-08-09T22:12:24.802Z,1.52
2022-08-09T22:15:35.338Z,1.08
2022-08-09T22:18:53.640Z,1.00
2022-08-09T22:21:57.767Z,1.38
2022-08-09T22:26:06.754Z,1.48
2022-08-09T22:28:32.589Z,1.40
2022-08-09T22:31:36.282Z,1.42
2022-08-09T22:34:41.490Z,1.65
2022-08-09T22:37:44.516Z,1.27
2022-08-09T22:40:49.068Z,1.30
2022-08-09T22:44:04.251Z,1.33
2022-08-09T22:48:10.515Z,1.25
2022-08-09T22:50:34.299Z,1.58
2022-08-09T22:53:58.762Z,1.55
2022-08-09T22:57:00.753Z,1.40
2022-08-09T23:00:06.336Z,1.30
2022-08-09T23:03:16.555Z,1.40
2022-08-09T23:06:58.528Z,1.48
2022-08-09T23:10:01.648Z,1.15
2022-08-09T23:13:05.009Z,1.40
2022-08-09T23:16:18.730Z,1.30
2022-08-09T23:19:21.702Z,1.20
2022-08-09T23:22:26.098Z,1.10
2022-08-09T23:25:29.330Z,1.20
2022-08-09T23:28:32.535Z,1.20
2022-08-09T23:31:35.803Z,1.48
2022-08-09T23:34:38.807Z,1.42
2022-08-09T23:37:43.202Z,1.50
2022-08-09T23:40:46.249Z,1.42
2022-08-09T23:43:49.211Z,1.20
2022-08-09T23:46:58.219Z,1.45
2022-08-09T23:50:01.207Z,1.33
2022-08-09T23:53:05.735Z,1.70
2022-08-09T23:56:09.084Z,1.65
2022-08-09T23:59:12.246Z,1.50
